createdAt,value
2023-01-04T00:02:56.614Z,9.79
2023-01-04T00:06:05.598Z,9.82
2023-01-04T00:09:11.383Z,9.82
2023-01-04T00:12:16.740Z,9.84
2023-01-04T00:15:22.550Z,9.85
2023-01-04T00:18:28.031Z,9.81
2023-01-04T00:21:33.504Z,9.84
2023-01-04T00:24:39.118Z,9.82
2023-01-04T00:27:44.785Z,9.81
2023-01-04T00:30:49.960Z,9.75
2023-01-04T00:33:56.756Z,9.74
2023-01-04T00:37:02.392Z,9.67
2023-01-04T00:40:08.343Z,9.72
2023-01-04T00:43:13.893Z,9.65
2023-01-04T00:46:19.052Z,9.65
2023-01-04T00:49:24.828Z,9.67
2023-01-04T00:52:30.436Z,9.72
2023-01-04T00:55:36.257Z,9.66
2023-01-04T00:58:41.295Z,9.62
2023-01-04T01:01:47.721Z,9.64
2023-01-04T01:04:53.244Z,9.66
2023-01-04T01:07:58.996Z,9.69
2023-01-04T01:11:07.612Z,9.75
2023-01-04T01:14:18.868Z,9.76
2023-01-04T01:17:24.803Z,9.75
2023-01-04T01:20:30.304Z,9.76
2023-01-04T01:23:36.093Z,9.69
2023-01-04T01:26:41.552Z,9.62
2023-01-04T01:29:46.579Z,9.62
2023-01-04T01:32:51.887Z,9.67
2023-01-04T01:36:02.419Z,9.65
2023-01-04T01:39:08.160Z,9.62
2023-01-04T01:42:20.713Z,9.68
2023-01-04T01:45:34.862Z,9.74
2023-01-04T01:48:41.416Z,9.73
2023-01-04T01:51:46.778Z,9.69
2023-01-04T01:55:00.162Z,9.72
2023-01-04T01:58:09.502Z,9.72
2023-01-04T02:01:15.272Z,9.75
2023-01-04T02:04:20.908Z,9.68
2023-01-04T02:07:28.296Z,9.75
2023-01-04T02:10:34.302Z,9.74
2023-01-04T02:14:01.436Z,9.64
2023-01-04T02:17:34.629Z,9.59
2023-01-04T02:21:05.623Z,9.74
2023-01-04T02:24:44.583Z,9.73
2023-01-04T02:28:02.583Z,9.57
2023-01-04T02:32:01.739Z,9.51
2023-01-04T02:35:21.887Z,9.36
2023-01-04T02:38:54.035Z,9.51
2023-01-04T02:42:06.923Z,9.57
2023-01-04T02:45:15.554Z,9.66
2023-01-04T02:48:39.599Z,9.71
2023-01-04T02:51:45.301Z,9.72
2023-01-04T02:54:55.659Z,9.74
2023-01-04T02:58:29.604Z,9.68
2023-01-04T03:02:06.144Z,9.75
2023-01-04T03:05:35.355Z,9.70
2023-01-04T03:09:07.774Z,9.36
2023-01-04T03:12:34.635Z,9.54
2023-01-04T03:15:41.453Z,9.56
2023-01-04T03:18:53.338Z,9.62
2023-01-04T03:21:59.058Z,9.57
2023-01-04T03:25:25.451Z,9.63
2023-01-04T03:28:54.821Z,9.65
2023-01-04T03:32:34.047Z,9.66
2023-01-04T03:35:48.328Z,9.66
2023-01-04T03:39:46.446Z,9.66
2023-01-04T03:43:28.044Z,9.73
2023-01-04T03:47:02.910Z,9.74
2023-01-04T03:50:26.806Z,9.69
2023-01-04T03:53:40.686Z,9.70
2023-01-04T03:56:48.461Z,9.75
2023-01-04T04:00:02.705Z,9.73
2023-01-04T04:03:10.127Z,9.71
2023-01-04T04:06:33.967Z,9.66
2023-01-04T04:09:39.320Z,9.68
2023-01-04T04:12:44.899Z,9.67
2023-01-04T04:15:53.686Z,9.64
2023-01-04T04:19:03.109Z,9.63
2023-01-04T04:22:12.131Z,9.68
2023-01-04T04:25:17.873Z,9.69
2023-01-04T04:28:23.786Z,9.67
2023-01-04T04:31:29.274Z,9.66
2023-01-04T04:34:34.871Z,9.66
2023-01-04T04:37:40.529Z,9.66
2023-01-04T04:41:05.197Z,9.62
2023-01-04T04:44:17.351Z,9.62
2023-01-04T04:47:22.459Z,9.54
2023-01-04T04:50:27.705Z,9.59
2023-01-04T04:53:33.619Z,9.60
2023-01-04T04:56:39.622Z,9.65
2023-01-04T04:59:45.663Z,9.64
2023-01-04T05:02:51.242Z,9.61
2023-01-04T05:05:56.614Z,9.63
2023-01-04T05:09:02.174Z,9.69
2023-01-04T05:12:26.529Z,9.76
2023-01-04T05:15:39.213Z,9.72
2023-01-04T05:18:44.424Z,9.67
2023-01-04T05:21:49.619Z,9.69
2023-01-04T05:24:54.765Z,9.72
2023-01-04T05:28:00.659Z,9.68
2023-01-04T05:31:06.260Z,9.75
2023-01-04T05:34:13.882Z,9.69
2023-01-04T05:37:22.742Z,9.68
2023-01-04T05:40:28.217Z,9.72
2023-01-04T05:43:34.006Z,9.51
2023-01-04T05:46:39.623Z,9.64
2023-01-04T05:49:45.039Z,9.63
2023-01-04T05:52:51.039Z,9.65
2023-01-04T05:55:56.396Z,9.66
2023-01-04T05:59:01.754Z,9.68
2023-01-04T06:02:08.703Z,9.65
2023-01-04T06:05:14.190Z,9.67
2023-01-04T06:08:19.804Z,9.64
2023-01-04T06:11:27.748Z,9.69
2023-01-04T06:14:33.588Z,9.53
2023-01-04T06:17:39.833Z,9.63
2023-01-04T06:20:45.096Z,9.55
2023-01-04T06:23:50.539Z,9.59
2023-01-04T06:26:55.848Z,9.57
2023-01-04T06:30:01.160Z,9.65
2023-01-04T06:33:06.552Z,9.65
2023-01-04T06:36:19.932Z,9.65
2023-01-04T06:39:26.044Z,9.66
2023-01-04T06:42:46.583Z,9.64
2023-01-04T06:45:52.307Z,9.67
2023-01-04T06:48:58.479Z,9.64
2023-01-04T06:52:04.471Z,9.62
2023-01-04T06:55:10.422Z,9.57
2023-01-04T06:58:16.090Z,9.53
2023-01-04T07:01:21.547Z,9.52
2023-01-04T07:04:26.938Z,9.56
2023-01-04T07:07:34.259Z,9.53
2023-01-04T07:10:39.537Z,9.54
2023-01-04T07:13:45.107Z,9.52
2023-01-04T07:16:50.292Z,9.61
2023-01-04T07:19:55.560Z,9.53
2023-01-04T07:23:01.289Z,9.59
2023-01-04T07:26:06.836Z,9.47
2023-01-04T07:29:15.039Z,9.61
2023-01-04T07:32:20.347Z,9.52
2023-01-04T07:35:26.164Z,9.58
2023-01-04T07:38:31.678Z,9.55
2023-01-04T07:41:37.818Z,9.62
2023-01-04T07:44:43.243Z,9.69
2023-01-04T07:47:48.736Z,9.66
2023-01-04T07:50:53.957Z,9.75
2023-01-04T07:54:00.720Z,9.81
2023-01-04T07:57:06.545Z,9.66
2023-01-04T08:00:12.904Z,9.76
2023-01-04T08:03:18.997Z,9.85
2023-01-04T08:06:25.916Z,9.83
2023-01-04T08:09:31.268Z,9.89
2023-01-04T08:12:36.827Z,9.93
2023-01-04T08:15:42.382Z,9.94
2023-01-04T08:18:48.267Z,9.93
2023-01-04T08:21:54.017Z,10.02
2023-01-04T08:24:59.814Z,10.02
2023-01-04T08:28:05.943Z,10.00
2023-01-04T08:31:17.289Z,9.89
2023-01-04T08:34:22.605Z,9.89
2023-01-04T08:37:29.113Z,10.01
2023-01-04T08:40:58.201Z,10.03
2023-01-04T08:44:00.743Z,9.88
2023-01-04T08:47:06.383Z,9.87
2023-01-04T08:50:11.857Z,9.99
2023-01-04T08:53:17.536Z,9.89
2023-01-04T08:56:23.147Z,9.67
2023-01-04T08:59:28.704Z,9.51
2023-01-04T09:02:34.379Z,9.61
2023-01-04T09:05:40.268Z,9.85
2023-01-04T09:08:45.978Z,9.81
2023-01-04T09:11:51.685Z,9.87
2023-01-04T09:14:57.325Z,9.89
2023-01-04T09:18:30.937Z,10.01
2023-01-04T09:21:29.593Z,10.07
2023-01-04T09:24:35.948Z,10.29
2023-01-04T09:27:41.604Z,10.23
2023-01-04T09:30:47.177Z,10.42
2023-01-04T09:37:19.524Z,10.37
2023-01-04T09:40:32.164Z,10.07
2023-01-04T09:44:01.496Z,10.05
2023-01-04T09:47:22.688Z,10.15
2023-01-04T09:50:30.166Z,10.02
2023-01-04T09:53:45.520Z,10.13
2023-01-04T09:57:01.296Z,10.34
2023-01-04T10:00:07.180Z,10.20
2023-01-04T10:03:35.189Z,10.38
2023-01-04T10:06:41.177Z,10.11
2023-01-04T10:09:46.708Z,10.14
2023-01-04T10:13:21.978Z,10.20
2023-01-04T10:24:43.848Z,10.45
2023-01-04T10:28:27.780Z,10.19
2023-01-04T10:31:52.652Z,10.45
2023-01-04T10:34:58.982Z,10.18
2023-01-04T10:38:15.732Z,10.26
2023-01-04T10:41:24.968Z,10.34
2023-01-04T10:45:06.833Z,10.25
2023-01-04T10:48:39.052Z,10.44
2023-01-04T10:51:55.440Z,10.15
2023-01-04T10:55:16.474Z,10.18
2023-01-04T10:58:32.255Z,10.14
2023-01-04T11:01:42.937Z,10.26
2023-01-04T11:05:00.155Z,10.09
2023-01-04T11:08:17.864Z,10.35
2023-01-04T11:11:41.959Z,10.54
2023-01-04T11:14:47.481Z,10.52
2023-01-04T11:17:53.453Z,10.54
2023-01-04T11:20:59.897Z,10.53
2023-01-04T11:24:30.947Z,10.83
2023-01-04T11:27:43.010Z,10.67
2023-01-04T11:31:10.943Z,10.76
2023-01-04T11:34:16.644Z,10.81
2023-01-04T11:37:30.162Z,10.92
2023-01-04T11:40:36.148Z,10.76
2023-01-04T11:43:58.971Z,10.87
2023-01-04T11:47:33.258Z,10.90
2023-01-04T11:50:46.484Z,10.77
2023-01-04T11:54:15.100Z,10.86
2023-01-04T11:57:21.920Z,10.98
2023-01-04T12:00:27.430Z,10.92
2023-01-04T12:03:39.178Z,10.92
2023-01-04T12:06:54.196Z,11.00
2023-01-04T12:10:01.935Z,11.01
2023-01-04T12:13:10.787Z,11.20
2023-01-04T12:16:50.223Z,11.35
2023-01-04T12:19:57.734Z,11.46
2023-01-04T12:23:03.706Z,11.33
2023-01-04T12:26:12.401Z,11.26
2023-01-04T12:29:24.083Z,11.30
2023-01-04T12:32:29.641Z,11.20
2023-01-04T12:36:03.196Z,11.25
2023-01-04T12:39:14.978Z,11.30
2023-01-04T12:42:27.790Z,11.28
2023-01-04T12:45:32.997Z,11.22
2023-01-04T12:48:56.752Z,11.18
2023-01-04T12:55:43.837Z,11.44
2023-01-04T12:59:26.825Z,11.32
2023-01-04T13:02:35.738Z,11.34
2023-01-04T13:05:56.668Z,11.34
2023-01-04T13:09:03.422Z,11.26
2023-01-04T13:12:21.188Z,11.30
2023-01-04T13:15:32.396Z,11.21
2023-01-04T13:18:40.513Z,11.28
2023-01-04T13:21:47.269Z,11.27
2023-01-04T13:24:56.835Z,11.32
2023-01-04T13:28:05.471Z,11.34
2023-01-04T13:31:11.115Z,11.19
2023-01-04T13:34:52.837Z,11.31
2023-01-04T13:38:01.162Z,11.29
2023-01-04T13:41:23.436Z,11.30
2023-01-04T13:45:00.129Z,11.32
2023-01-04T13:48:05.500Z,11.19
2023-01-04T13:51:37.074Z,11.17
2023-01-04T13:54:43.964Z,11.28
2023-01-04T13:58:17.781Z,11.16
2023-01-04T14:01:41.538Z,11.24
2023-01-04T14:04:51.141Z,11.17
2023-01-04T14:07:57.409Z,11.21
2023-01-04T14:11:35.949Z,11.19
2023-01-04T14:15:01.083Z,11.14
2023-01-04T14:18:29.590Z,11.03
2023-01-04T14:21:37.192Z,10.96
2023-01-04T14:25:08.561Z,10.93
2023-01-04T14:28:49.060Z,10.94
2023-01-04T14:31:55.524Z,10.94
2023-01-04T14:35:11.822Z,10.92
2023-01-04T14:38:19.385Z,11.01
2023-01-04T14:41:28.909Z,10.99
2023-01-04T14:44:36.508Z,10.99
2023-01-04T14:47:42.482Z,10.88
2023-01-04T14:50:48.235Z,10.98
2023-01-04T14:53:55.386Z,11.02
2023-01-04T14:57:00.922Z,11.01
2023-01-04T15:00:06.868Z,11.04
2023-01-04T15:03:12.703Z,10.98
2023-01-04T15:06:19.067Z,10.91
2023-01-04T15:09:25.367Z,10.92
2023-01-04T15:12:31.380Z,11.00
2023-01-04T15:15:37.155Z,10.97
2023-01-04T15:18:43.735Z,10.98
2023-01-04T15:21:48.994Z,10.91
2023-01-04T15:24:54.152Z,10.93
2023-01-04T15:27:59.389Z,10.90
2023-01-04T15:31:13.276Z,10.90
2023-01-04T15:34:19.091Z,10.99
2023-01-04T15:37:24.570Z,10.92
2023-01-04T15:40:29.769Z,10.91
2023-01-04T15:43:36.702Z,10.90
2023-01-04T15:46:42.383Z,10.83
2023-01-04T15:49:48.207Z,10.89
2023-01-04T15:52:53.652Z,10.86
2023-01-04T15:56:08.290Z,10.86
2023-01-04T15:59:14.102Z,10.85
2023-01-04T16:02:19.892Z,10.85
2023-01-04T16:05:25.616Z,10.81
2023-01-04T16:08:31.794Z,10.77
2023-01-04T16:11:37.333Z,10.71
2023-01-04T16:14:42.603Z,10.65
2023-01-04T16:17:48.893Z,10.71
2023-01-04T16:20:54.469Z,10.67
2023-01-04T16:24:07.180Z,10.67
2023-01-04T16:27:22.486Z,10.69
2023-01-04T16:30:33.190Z,10.70
2023-01-04T16:33:38.476Z,10.66
2023-01-04T16:36:43.516Z,10.65
2023-01-04T16:40:06.170Z,10.68
2023-01-04T16:43:12.396Z,10.66
2023-01-04T16:46:26.171Z,10.61
2023-01-04T16:49:31.463Z,10.50
2023-01-04T16:52:36.447Z,10.51
2023-01-04T16:55:41.710Z,10.51
2023-01-04T16:58:48.460Z,10.55
2023-01-04T17:01:58.190Z,10.60
2023-01-04T17:05:04.671Z,10.45
2023-01-04T17:08:10.340Z,10.46
2023-01-04T17:14:49.022Z,10.33
2023-01-04T17:18:02.185Z,10.33
2023-01-04T17:21:33.354Z,10.35
2023-01-04T17:24:37.671Z,10.26
2023-01-04T17:27:43.467Z,10.29
2023-01-04T17:30:49.338Z,10.17
2023-01-04T17:33:55.606Z,10.17
2023-01-04T17:37:01.173Z,10.20
2023-01-04T17:40:07.115Z,10.18
2023-01-04T17:43:12.571Z,10.24
2023-01-04T17:46:23.400Z,10.24
2023-01-04T17:49:32.061Z,10.28
2023-01-04T17:52:38.358Z,10.10
2023-01-04T17:55:43.971Z,10.13
2023-01-04T17:58:49.049Z,10.17
2023-01-04T18:01:54.662Z,10.08
2023-01-04T18:05:01.130Z,9.97
2023-01-04T18:08:09.071Z,10.09
2023-01-04T18:11:14.659Z,10.00
2023-01-04T18:14:20.110Z,10.16
2023-01-04T18:17:25.967Z,10.00
2023-01-04T18:20:31.475Z,10.03
2023-01-04T18:23:38.575Z,9.95
2023-01-04T18:30:13.015Z,9.95
2023-01-04T18:33:18.586Z,10.01
2023-01-04T18:36:29.867Z,10.01
2023-01-04T18:39:37.242Z,10.09
2023-01-04T18:42:47.540Z,10.06
2023-01-04T18:45:52.965Z,10.05
2023-01-04T18:49:00.313Z,9.90
2023-01-04T18:52:06.355Z,9.89
2023-01-04T18:55:11.957Z,9.88
2023-01-04T18:58:17.623Z,9.89
2023-01-04T19:01:23.574Z,9.92
2023-01-04T19:04:34.374Z,9.88
2023-01-04T19:07:40.059Z,9.87
2023-01-04T19:10:45.320Z,10.02
2023-01-04T19:13:52.798Z,9.97
2023-01-04T19:16:58.615Z,10.06
2023-01-04T19:20:04.285Z,9.95
2023-01-04T19:23:09.810Z,9.94
2023-01-04T19:26:15.525Z,9.91
2023-01-04T19:29:22.689Z,9.93
2023-01-04T19:32:33.228Z,9.97
2023-01-04T19:35:46.968Z,10.01
2023-01-04T19:38:55.630Z,10.02
2023-01-04T19:42:01.196Z,9.95
2023-01-04T19:45:07.157Z,10.03
2023-01-04T19:48:12.968Z,9.97
2023-01-04T19:51:18.352Z,9.87
2023-01-04T19:54:25.753Z,10.06
2023-01-04T19:57:32.969Z,9.97
2023-01-04T20:00:40.231Z,9.93
2023-01-04T20:03:47.211Z,9.99
2023-01-04T20:06:54.592Z,9.85
2023-01-04T20:10:00.280Z,9.93
2023-01-04T20:13:05.780Z,9.97
2023-01-04T20:16:12.535Z,9.97
2023-01-04T20:19:19.666Z,9.83
2023-01-04T20:22:26.583Z,9.84
2023-01-04T20:25:32.237Z,9.86
2023-01-04T20:28:39.971Z,9.91
2023-01-04T20:31:46.944Z,9.84
2023-01-04T20:34:53.105Z,9.88
2023-01-04T20:38:00.000Z,9.99
2023-01-04T20:41:06.565Z,9.98
2023-01-04T20:44:12.629Z,9.91
2023-01-04T20:47:19.817Z,9.86
2023-01-04T20:50:26.747Z,9.89
2023-01-04T20:53:34.507Z,9.91
2023-01-04T20:56:45.400Z,9.80
2023-01-04T20:59:52.403Z,9.82
2023-01-04T21:02:59.263Z,9.78
2023-01-04T21:06:08.949Z,9.86
2023-01-04T21:09:14.779Z,9.72
2023-01-04T21:12:20.695Z,9.88
2023-01-04T21:15:26.243Z,9.82
2023-01-04T21:18:33.647Z,9.82
2023-01-04T21:21:39.538Z,9.93
2023-01-04T21:24:45.535Z,9.87
2023-01-04T21:27:51.146Z,9.87
2023-01-04T21:30:57.452Z,9.85
2023-01-04T21:34:06.661Z,9.82
2023-01-04T21:37:15.019Z,9.59
2023-01-04T21:40:20.719Z,9.71
2023-01-04T21:43:26.129Z,9.75
2023-01-04T21:46:31.604Z,9.82
2023-01-04T21:49:37.128Z,9.72
2023-01-04T21:52:42.673Z,9.75
2023-01-04T21:55:48.307Z,9.77
2023-01-04T21:58:53.382Z,9.61
2023-01-04T22:01:58.870Z,9.66
2023-01-04T22:05:05.087Z,9.59
2023-01-04T22:08:10.833Z,9.58
2023-01-04T22:11:16.891Z,9.57
2023-01-04T22:14:22.514Z,9.60
2023-01-04T22:17:28.023Z,9.61
2023-01-04T22:20:33.863Z,9.54
2023-01-04T22:23:39.586Z,9.45
2023-01-04T22:26:47.419Z,9.45
2023-01-04T22:29:52.685Z,9.28
2023-01-04T22:32:58.132Z,9.28
2023-01-04T22:36:22.851Z,9.31
2023-01-04T22:39:29.091Z,9.28
2023-01-04T22:42:34.880Z,9.23
2023-01-04T22:45:40.129Z,9.21
2023-01-04T22:48:46.077Z,9.17
2023-01-04T22:51:54.496Z,9.15
2023-01-04T22:55:00.205Z,9.15
2023-01-04T22:58:05.423Z,9.17
2023-01-04T23:01:11.161Z,9.21
2023-01-04T23:04:17.466Z,9.15
2023-01-04T23:07:22.777Z,8.95
2023-01-04T23:10:27.982Z,9.05
2023-01-04T23:13:33.931Z,9.18
2023-01-04T23:16:39.721Z,9.01
2023-01-04T23:19:45.055Z,9.08
2023-01-04T23:22:50.547Z,9.13
2023-01-04T23:25:56.271Z,9.20
2023-01-04T23:29:02.498Z,9.15
2023-01-04T23:32:08.123Z,9.07
2023-01-04T23:35:14.043Z,9.03
2023-01-04T23:38:19.491Z,9.08
2023-01-04T23:41:44.496Z,9.01
2023-01-04T23:44:50.510Z,8.95
2023-01-04T23:47:56.160Z,8.98
2023-01-04T23:51:01.879Z,9.03
2023-01-04T23:54:08.785Z,8.97
2023-01-04T23:57:14.121Z,9.02
